sensor_id;sensor_type;location;lat;lon;timestamp;P1;durP1;ratioP1;P2;durP2;ratioP2
76850;SDS011;65824;43.726;20.692;2023-07-09T00:01:50;10.50;;;5.68;;
76850;SDS011;65824;43.726;20.692;2023-07-09T00:04:17;11.68;;;6.00;;
76850;SDS011;65824;43.726;20.692;2023-07-09T00:06:43;9.95;;;5.80;;
76850;SDS011;65824;43.726;20.692;2023-07-09T00:09:16;9.63;;;5.43;;
76850;SDS011;65824;43.726;20.692;2023-07-09T00:11:44;8.18;;;5.65;;
76850;SDS011;65824;43.726;20.692;2023-07-09T00:14:10;10.52;;;5.80;;
76850;SDS011;65824;43.726;20.692;2023-07-09T00:16:37;10.38;;;5.10;;
76850;SDS011;65824;43.726;20.692;2023-07-09T00:19:04;12.02;;;5.50;;
76850;SDS011;65824;43.726;20.692;2023-07-09T00:21:38;16.77;;;5.78;;
76850;SDS011;65824;43.726;20.692;2023-07-09T00:24:04;11.05;;;5.82;;
76850;SDS011;65824;43.726;20.692;2023-07-09T00:26:33;8.98;;;5.00;;
76850;SDS011;65824;43.726;20.692;2023-07-09T00:28:59;7.70;;;4.82;;
76850;SDS011;65824;43.726;20.692;2023-07-09T00:31:25;9.27;;;4.70;;
76850;SDS011;65824;43.726;20.692;2023-07-09T00:33:51;7.70;;;4.80;;
76850;SDS011;65824;43.726;20.692;2023-07-09T00:38:46;6.93;;;4.80;;
76850;SDS011;65824;43.726;20.692;2023-07-09T00:41:19;8.55;;;4.80;;
76850;SDS011;65824;43.726;20.692;2023-07-09T00:43:46;7.63;;;4.30;;
76850;SDS011;65824;43.726;20.692;2023-07-09T00:48:45;8.07;;;4.70;;
76850;SDS011;65824;43.726;20.692;2023-07-09T00:51:16;8.10;;;4.55;;
76850;SDS011;65824;43.726;20.692;2023-07-09T00:53:45;8.18;;;4.53;;
76850;SDS011;65824;43.726;20.692;2023-07-09T00:56:14;8.10;;;4.82;;
76850;SDS011;65824;43.726;20.692;2023-07-09T00:58:45;7.93;;;4.45;;
76850;SDS011;65824;43.726;20.692;2023-07-09T01:01:13;7.47;;;5.40;;
76850;SDS011;65824;43.726;20.692;2023-07-09T01:03:51;7.30;;;4.55;;
76850;SDS011;65824;43.726;20.692;2023-07-09T01:06:19;8.02;;;4.70;;
76850;SDS011;65824;43.726;20.692;2023-07-09T01:08:48;7.30;;;4.60;;
76850;SDS011;65824;43.726;20.692;2023-07-09T01:11:18;7.45;;;4.43;;
76850;SDS011;65824;43.726;20.692;2023-07-09T01:13:49;9.77;;;4.32;;
76850;SDS011;65824;43.726;20.692;2023-07-09T01:16:22;7.80;;;4.13;;
76850;SDS011;65824;43.726;20.692;2023-07-09T01:18:50;7.28;;;4.20;;
76850;SDS011;65824;43.726;20.692;2023-07-09T01:21:16;6.78;;;4.18;;
76850;SDS011;65824;43.726;20.692;2023-07-09T01:23:42;6.82;;;4.55;;
76850;SDS011;65824;43.726;20.692;2023-07-09T01:26:12;5.88;;;4.03;;
76850;SDS011;65824;43.726;20.692;2023-07-09T01:28:41;8.77;;;4.60;;
76850;SDS011;65824;43.726;20.692;2023-07-09T01:31:09;8.85;;;4.13;;
76850;SDS011;65824;43.726;20.692;2023-07-09T01:33:35;8.23;;;4.60;;
76850;SDS011;65824;43.726;20.692;2023-07-09T01:36:01;7.13;;;4.40;;
76850;SDS011;65824;43.726;20.692;2023-07-09T01:38:27;7.57;;;4.30;;
76850;SDS011;65824;43.726;20.692;2023-07-09T01:40:56;8.32;;;4.55;;
76850;SDS011;65824;43.726;20.692;2023-07-09T01:43:22;7.07;;;4.30;;
76850;SDS011;65824;43.726;20.692;2023-07-09T01:45:50;6.63;;;4.15;;
76850;SDS011;65824;43.726;20.692;2023-07-09T01:48:16;7.97;;;4.60;;
76850;SDS011;65824;43.726;20.692;2023-07-09T01:50:45;7.07;;;4.18;;
76850;SDS011;65824;43.726;20.692;2023-07-09T01:53:14;8.63;;;4.75;;
76850;SDS011;65824;43.726;20.692;2023-07-09T01:55:42;7.80;;;4.70;;
76850;SDS011;65824;43.726;20.692;2023-07-09T01:58:08;7.65;;;4.40;;
76850;SDS011;65824;43.726;20.692;2023-07-09T02:00:34;8.98;;;4.57;;
76850;SDS011;65824;43.726;20.692;2023-07-09T02:03:02;7.97;;;4.32;;
76850;SDS011;65824;43.726;20.692;2023-07-09T02:05:30;7.00;;;4.35;;
76850;SDS011;65824;43.726;20.692;2023-07-09T02:07:56;7.18;;;4.38;;
76850;SDS011;65824;43.726;20.692;2023-07-09T02:10:22;8.35;;;4.65;;
76850;SDS011;65824;43.726;20.692;2023-07-09T02:12:47;7.65;;;4.00;;
76850;SDS011;65824;43.726;20.692;2023-07-09T02:15:13;6.70;;;4.15;;
76850;SDS011;65824;43.726;20.692;2023-07-09T02:17:40;7.25;;;4.53;;
76850;SDS011;65824;43.726;20.692;2023-07-09T02:20:06;7.80;;;4.32;;
76850;SDS011;65824;43.726;20.692;2023-07-09T02:22:33;6.65;;;4.47;;
76850;SDS011;65824;43.726;20.692;2023-07-09T02:24:59;6.30;;;3.95;;
76850;SDS011;65824;43.726;20.692;2023-07-09T02:27:25;6.22;;;4.10;;
76850;SDS011;65824;43.726;20.692;2023-07-09T02:29:50;7.90;;;4.40;;
76850;SDS011;65824;43.726;20.692;2023-07-09T02:32:19;8.05;;;4.40;;
76850;SDS011;65824;43.726;20.692;2023-07-09T02:34:47;7.75;;;4.65;;
76850;SDS011;65824;43.726;20.692;2023-07-09T02:37:14;7.32;;;4.18;;
76850;SDS011;65824;43.726;20.692;2023-07-09T02:39:43;7.85;;;4.47;;
76850;SDS011;65824;43.726;20.692;2023-07-09T02:42:09;6.53;;;4.32;;
76850;SDS011;65824;43.726;20.692;2023-07-09T02:44:36;8.18;;;4.65;;
76850;SDS011;65824;43.726;20.692;2023-07-09T02:47:02;7.05;;;4.40;;
76850;SDS011;65824;43.726;20.692;2023-07-09T02:49:29;6.38;;;4.10;;
76850;SDS011;65824;43.726;20.692;2023-07-09T02:51:54;7.10;;;4.10;;
76850;SDS011;65824;43.726;20.692;2023-07-09T02:54:20;7.35;;;4.25;;
76850;SDS011;65824;43.726;20.692;2023-07-09T02:56:46;7.78;;;4.32;;
76850;SDS011;65824;43.726;20.692;2023-07-09T02:59:13;6.13;;;3.85;;
76850;SDS011;65824;43.726;20.692;2023-07-09T03:01:38;6.38;;;4.10;;
76850;SDS011;65824;43.726;20.692;2023-07-09T03:04:04;11.55;;;4.47;;
76850;SDS011;65824;43.726;20.692;2023-07-09T03:06:30;7.57;;;4.95;;
76850;SDS011;65824;43.726;20.692;2023-07-09T03:08:58;7.97;;;4.28;;
76850;SDS011;65824;43.726;20.692;2023-07-09T03:11:25;7.88;;;4.53;;
76850;SDS011;65824;43.726;20.692;2023-07-09T03:13:50;8.02;;;4.85;;
76850;SDS011;65824;43.726;20.692;2023-07-09T03:16:16;8.73;;;5.18;;
76850;SDS011;65824;43.726;20.692;2023-07-09T03:18:44;9.30;;;4.82;;
76850;SDS011;65824;43.726;20.692;2023-07-09T03:21:11;7.82;;;5.15;;
76850;SDS011;65824;43.726;20.692;2023-07-09T03:23:36;11.98;;;5.60;;
76850;SDS011;65824;43.726;20.692;2023-07-09T03:26:02;7.38;;;5.28;;
76850;SDS011;65824;43.726;20.692;2023-07-09T03:28:29;8.73;;;5.10;;
76850;SDS011;65824;43.726;20.692;2023-07-09T03:30:55;14.85;;;6.22;;
76850;SDS011;65824;43.726;20.692;2023-07-09T03:33:21;8.50;;;5.22;;
76850;SDS011;65824;43.726;20.692;2023-07-09T03:35:47;7.88;;;5.13;;
76850;SDS011;65824;43.726;20.692;2023-07-09T03:38:12;8.82;;;5.55;;
76850;SDS011;65824;43.726;20.692;2023-07-09T03:40:38;8.23;;;5.38;;
76850;SDS011;65824;43.726;20.692;2023-07-09T03:43:05;9.25;;;5.47;;
76850;SDS011;65824;43.726;20.692;2023-07-09T03:45:31;9.70;;;5.93;;
76850;SDS011;65824;43.726;20.692;2023-07-09T03:47:57;11.52;;;6.55;;
76850;SDS011;65824;43.726;20.692;2023-07-09T03:50:22;9.93;;;6.05;;
76850;SDS011;65824;43.726;20.692;2023-07-09T03:52:48;8.77;;;5.55;;
76850;SDS011;65824;43.726;20.692;2023-07-09T03:55:13;9.95;;;5.55;;
76850;SDS011;65824;43.726;20.692;2023-07-09T03:57:39;9.45;;;5.07;;
76850;SDS011;65824;43.726;20.692;2023-07-09T04:00:05;9.85;;;5.82;;
76850;SDS011;65824;43.726;20.692;2023-07-09T04:02:36;8.70;;;4.95;;
76850;SDS011;65824;43.726;20.692;2023-07-09T04:05:02;10.65;;;4.65;;
76850;SDS011;65824;43.726;20.692;2023-07-09T04:07:28;7.53;;;4.43;;
76850;SDS011;65824;43.726;20.692;2023-07-09T04:09:55;10.93;;;4.85;;
76850;SDS011;65824;43.726;20.692;2023-07-09T04:12:21;8.70;;;4.60;;
76850;SDS011;65824;43.726;20.692;2023-07-09T04:14:48;10.23;;;4.57;;
76850;SDS011;65824;43.726;20.692;2023-07-09T04:17:13;9.55;;;4.65;;
76850;SDS011;65824;43.726;20.692;2023-07-09T04:19:38;7.28;;;4.35;;
76850;SDS011;65824;43.726;20.692;2023-07-09T04:22:04;7.50;;;4.40;;
76850;SDS011;65824;43.726;20.692;2023-07-09T04:24:31;7.28;;;4.50;;
76850;SDS011;65824;43.726;20.692;2023-07-09T04:26:58;9.27;;;4.63;;
76850;SDS011;65824;43.726;20.692;2023-07-09T04:29:30;7.03;;;4.03;;
76850;SDS011;65824;43.726;20.692;2023-07-09T04:31:55;6.35;;;4.40;;
76850;SDS011;65824;43.726;20.692;2023-07-09T04:34:21;7.75;;;3.95;;
76850;SDS011;65824;43.726;20.692;2023-07-09T04:36:46;6.72;;;4.47;;
76850;SDS011;65824;43.726;20.692;2023-07-09T04:39:12;8.70;;;4.80;;
76850;SDS011;65824;43.726;20.692;2023-07-09T04:41:37;7.43;;;4.32;;
76850;SDS011;65824;43.726;20.692;2023-07-09T04:44:03;10.68;;;5.30;;
76850;SDS011;65824;43.726;20.692;2023-07-09T04:46:29;13.32;;;5.32;;
76850;SDS011;65824;43.726;20.692;2023-07-09T04:48:55;11.93;;;5.32;;
76850;SDS011;65824;43.726;20.692;2023-07-09T04:51:25;10.45;;;5.57;;
76850;SDS011;65824;43.726;20.692;2023-07-09T04:53:51;12.57;;;5.25;;
76850;SDS011;65824;43.726;20.692;2023-07-09T04:56:17;12.32;;;5.10;;
76850;SDS011;65824;43.726;20.692;2023-07-09T04:58:42;9.45;;;5.60;;
76850;SDS011;65824;43.726;20.692;2023-07-09T05:01:08;22.88;;;5.57;;
76850;SDS011;65824;43.726;20.692;2023-07-09T05:03:33;12.85;;;6.10;;
76850;SDS011;65824;43.726;20.692;2023-07-09T05:05:59;10.38;;;5.40;;
76850;SDS011;65824;43.726;20.692;2023-07-09T05:08:25;14.65;;;6.00;;
76850;SDS011;65824;43.726;20.692;2023-07-09T05:10:52;9.70;;;5.30;;
76850;SDS011;65824;43.726;20.692;2023-07-09T05:13:18;11.20;;;5.90;;
76850;SDS011;65824;43.726;20.692;2023-07-09T05:15:44;9.93;;;5.03;;
76850;SDS011;65824;43.726;20.692;2023-07-09T05:18:12;8.93;;;5.57;;
76850;SDS011;65824;43.726;20.692;2023-07-09T05:20:39;9.75;;;5.90;;
76850;SDS011;65824;43.726;20.692;2023-07-09T05:23:05;12.93;;;6.28;;
76850;SDS011;65824;43.726;20.692;2023-07-09T05:25:35;11.27;;;6.53;;
76850;SDS011;65824;43.726;20.692;2023-07-09T05:28:00;11.50;;;6.15;;
76850;SDS011;65824;43.726;20.692;2023-07-09T05:30:26;10.02;;;5.18;;
76850;SDS011;65824;43.726;20.692;2023-07-09T05:32:51;10.15;;;5.40;;
76850;SDS011;65824;43.726;20.692;2023-07-09T05:35:18;8.68;;;4.95;;
76850;SDS011;65824;43.726;20.692;2023-07-09T05:37:44;10.25;;;5.18;;
76850;SDS011;65824;43.726;20.692;2023-07-09T05:40:10;10.38;;;4.78;;
76850;SDS011;65824;43.726;20.692;2023-07-09T05:42:36;10.45;;;4.70;;
76850;SDS011;65824;43.726;20.692;2023-07-09T05:45:02;8.18;;;4.60;;
76850;SDS011;65824;43.726;20.692;2023-07-09T05:47:28;8.20;;;4.50;;
76850;SDS011;65824;43.726;20.692;2023-07-09T05:49:53;8.43;;;4.63;;
76850;SDS011;65824;43.726;20.692;2023-07-09T05:52:22;8.95;;;4.50;;
76850;SDS011;65824;43.726;20.692;2023-07-09T05:54:49;7.20;;;4.97;;
76850;SDS011;65824;43.726;20.692;2023-07-09T05:57:15;8.52;;;4.70;;
76850;SDS011;65824;43.726;20.692;2023-07-09T05:59:41;12.07;;;5.00;;
76850;SDS011;65824;43.726;20.692;2023-07-09T06:02:09;9.27;;;4.88;;
76850;SDS011;65824;43.726;20.692;2023-07-09T06:04:37;9.93;;;5.07;;
76850;SDS011;65824;43.726;20.692;2023-07-09T06:07:03;6.65;;;4.63;;
76850;SDS011;65824;43.726;20.692;2023-07-09T06:09:29;11.38;;;5.50;;
76850;SDS011;65824;43.726;20.692;2023-07-09T06:11:55;10.18;;;5.82;;
76850;SDS011;65824;43.726;20.692;2023-07-09T06:14:23;11.02;;;4.90;;
76850;SDS011;65824;43.726;20.692;2023-07-09T06:16:50;7.95;;;4.57;;
76850;SDS011;65824;43.726;20.692;2023-07-09T06:19:18;8.50;;;5.32;;
76850;SDS011;65824;43.726;20.692;2023-07-09T06:21:44;10.98;;;4.63;;
76850;SDS011;65824;43.726;20.692;2023-07-09T06:24:12;8.25;;;4.57;;
76850;SDS011;65824;43.726;20.692;2023-07-09T06:26:38;7.45;;;4.47;;
76850;SDS011;65824;43.726;20.692;2023-07-09T06:29:03;9.50;;;4.75;;
76850;SDS011;65824;43.726;20.692;2023-07-09T06:31:30;8.32;;;4.88;;
76850;SDS011;65824;43.726;20.692;2023-07-09T06:33:55;8.98;;;5.60;;
76850;SDS011;65824;43.726;20.692;2023-07-09T06:36:21;51.15;;;30.92;;
76850;SDS011;65824;43.726;20.692;2023-07-09T06:38:46;46.05;;;27.08;;
76850;SDS011;65824;43.726;20.692;2023-07-09T06:41:12;40.28;;;24.52;;
76850;SDS011;65824;43.726;20.692;2023-07-09T06:43:38;18.08;;;11.93;;
76850;SDS011;65824;43.726;20.692;2023-07-09T06:46:04;102.70;;;64.40;;
76850;SDS011;65824;43.726;20.692;2023-07-09T06:48:31;65.38;;;40.05;;
76850;SDS011;65824;43.726;20.692;2023-07-09T06:50:56;38.83;;;25.02;;
76850;SDS011;65824;43.726;20.692;2023-07-09T06:53:23;44.45;;;30.83;;
76850;SDS011;65824;43.726;20.692;2023-07-09T06:55:49;60.58;;;37.78;;
76850;SDS011;65824;43.726;20.692;2023-07-09T06:58:18;42.13;;;27.38;;
76850;SDS011;65824;43.726;20.692;2023-07-09T07:00:44;11.30;;;7.35;;
76850;SDS011;65824;43.726;20.692;2023-07-09T07:03:10;21.40;;;13.48;;
76850;SDS011;65824;43.726;20.692;2023-07-09T07:05:35;16.90;;;10.95;;
76850;SDS011;65824;43.726;20.692;2023-07-09T07:08:01;15.15;;;10.13;;
76850;SDS011;65824;43.726;20.692;2023-07-09T07:10:28;14.73;;;9.60;;
76850;SDS011;65824;43.726;20.692;2023-07-09T07:12:55;14.20;;;8.88;;
76850;SDS011;65824;43.726;20.692;2023-07-09T07:15:21;16.77;;;11.65;;
76850;SDS011;65824;43.726;20.692;2023-07-09T07:17:48;21.35;;;14.07;;
76850;SDS011;65824;43.726;20.692;2023-07-09T07:20:15;13.95;;;8.10;;
76850;SDS011;65824;43.726;20.692;2023-07-09T07:22:41;9.25;;;5.97;;
76850;SDS011;65824;43.726;20.692;2023-07-09T07:25:07;11.95;;;8.15;;
76850;SDS011;65824;43.726;20.692;2023-07-09T07:27:34;19.52;;;10.32;;
76850;SDS011;65824;43.726;20.692;2023-07-09T07:30:02;15.75;;;10.07;;
76850;SDS011;65824;43.726;20.692;2023-07-09T07:32:28;27.83;;;18.17;;
76850;SDS011;65824;43.726;20.692;2023-07-09T07:34:54;23.45;;;14.77;;
76850;SDS011;65824;43.726;20.692;2023-07-09T07:37:20;23.08;;;15.10;;
76850;SDS011;65824;43.726;20.692;2023-07-09T07:39:47;29.75;;;18.75;;
76850;SDS011;65824;43.726;20.692;2023-07-09T07:42:13;29.25;;;19.05;;
76850;SDS011;65824;43.726;20.692;2023-07-09T07:44:39;36.40;;;23.20;;
76850;SDS011;65824;43.726;20.692;2023-07-09T07:47:05;12.27;;;8.07;;
76850;SDS011;65824;43.726;20.692;2023-07-09T07:49:31;11.50;;;7.57;;
76850;SDS011;65824;43.726;20.692;2023-07-09T07:51:57;26.27;;;17.42;;
76850;SDS011;65824;43.726;20.692;2023-07-09T07:54:23;13.98;;;7.93;;
76850;SDS011;65824;43.726;20.692;2023-07-09T07:56:48;15.27;;;9.77;;
76850;SDS011;65824;43.726;20.692;2023-07-09T07:59:14;16.40;;;10.07;;
76850;SDS011;65824;43.726;20.692;2023-07-09T08:01:40;15.38;;;9.63;;
76850;SDS011;65824;43.726;20.692;2023-07-09T08:04:07;10.75;;;6.47;;
76850;SDS011;65824;43.726;20.692;2023-07-09T08:06:32;16.05;;;9.80;;
76850;SDS011;65824;43.726;20.692;2023-07-09T08:08:58;13.93;;;9.57;;
76850;SDS011;65824;43.726;20.692;2023-07-09T08:11:23;30.77;;;18.55;;
76850;SDS011;65824;43.726;20.692;2023-07-09T08:13:49;19.88;;;13.75;;
76850;SDS011;65824;43.726;20.692;2023-07-09T08:16:15;53.60;;;36.00;;
76850;SDS011;65824;43.726;20.692;2023-07-09T08:18:41;23.42;;;16.73;;
76850;SDS011;65824;43.726;20.692;2023-07-09T08:21:07;24.90;;;15.82;;
76850;SDS011;65824;43.726;20.692;2023-07-09T08:23:32;22.17;;;13.50;;
76850;SDS011;65824;43.726;20.692;2023-07-09T08:25:58;19.67;;;12.98;;
76850;SDS011;65824;43.726;20.692;2023-07-09T08:28:27;37.10;;;25.38;;
76850;SDS011;65824;43.726;20.692;2023-07-09T08:30:54;56.13;;;37.78;;
76850;SDS011;65824;43.726;20.692;2023-07-09T08:33:21;83.88;;;59.03;;
76850;SDS011;65824;43.726;20.692;2023-07-09T08:35:48;52.00;;;35.63;;
76850;SDS011;65824;43.726;20.692;2023-07-09T08:38:18;19.48;;;11.63;;
76850;SDS011;65824;43.726;20.692;2023-07-09T08:46:59;50.60;;;33.22;;
76850;SDS011;65824;43.726;20.692;2023-07-09T08:52:01;32.08;;;20.90;;
76850;SDS011;65824;43.726;20.692;2023-07-09T08:54:28;14.40;;;9.70;;
76850;SDS011;65824;43.726;20.692;2023-07-09T08:57:00;10.07;;;6.15;;
76850;SDS011;65824;43.726;20.692;2023-07-09T08:59:39;35.97;;;24.60;;
76850;SDS011;65824;43.726;20.692;2023-07-09T09:02:06;15.85;;;10.10;;
76850;SDS011;65824;43.726;20.692;2023-07-09T09:04:53;63.00;;;42.85;;
76850;SDS011;65824;43.726;20.692;2023-07-09T09:07:31;62.50;;;42.17;;
76850;SDS011;65824;43.726;20.692;2023-07-09T09:10:04;45.28;;;32.30;;
76850;SDS011;65824;43.726;20.692;2023-07-09T09:17:43;25.38;;;17.23;;
76850;SDS011;65824;43.726;20.692;2023-07-09T09:20:17;7.15;;;4.15;;
76850;SDS011;65824;43.726;20.692;2023-07-09T09:25:28;11.38;;;6.18;;
76850;SDS011;65824;43.726;20.692;2023-07-09T09:27:59;10.25;;;6.65;;
76850;SDS011;65824;43.726;20.692;2023-07-09T09:30:25;9.10;;;5.35;;
76850;SDS011;65824;43.726;20.692;2023-07-09T09:32:55;13.20;;;7.80;;
76850;SDS011;65824;43.726;20.692;2023-07-09T09:35:40;14.55;;;7.43;;
76850;SDS011;65824;43.726;20.692;2023-07-09T09:38:13;14.63;;;9.18;;
76850;SDS011;65824;43.726;20.692;2023-07-09T09:40:48;14.63;;;9.82;;
76850;SDS011;65824;43.726;20.692;2023-07-09T09:43:16;9.40;;;5.57;;
76850;SDS011;65824;43.726;20.692;2023-07-09T09:45:46;11.15;;;6.68;;
76850;SDS011;65824;43.726;20.692;2023-07-09T09:50:51;27.33;;;17.80;;
76850;SDS011;65824;43.726;20.692;2023-07-09T09:53:21;50.20;;;37.55;;
76850;SDS011;65824;43.726;20.692;2023-07-09T09:55:49;37.92;;;27.55;;
76850;SDS011;65824;43.726;20.692;2023-07-09T09:58:17;38.17;;;28.08;;
76850;SDS011;65824;43.726;20.692;2023-07-09T10:00:47;54.63;;;37.28;;
76850;SDS011;65824;43.726;20.692;2023-07-09T10:03:17;15.75;;;7.18;;
76850;SDS011;65824;43.726;20.692;2023-07-09T10:05:57;46.30;;;30.55;;
76850;SDS011;65824;43.726;20.692;2023-07-09T10:13:54;96.97;;;69.15;;
76850;SDS011;65824;43.726;20.692;2023-07-09T10:16:29;78.78;;;57.42;;
76850;SDS011;65824;43.726;20.692;2023-07-09T10:19:11;30.73;;;21.70;;
76850;SDS011;65824;43.726;20.692;2023-07-09T10:27:55;13.77;;;8.80;;
76850;SDS011;65824;43.726;20.692;2023-07-09T10:33:12;54.15;;;32.63;;
76850;SDS011;65824;43.726;20.692;2023-07-09T10:41:29;52.75;;;34.72;;
76850;SDS011;65824;43.726;20.692;2023-07-09T10:44:05;65.13;;;48.88;;
76850;SDS011;65824;43.726;20.692;2023-07-09T10:47:01;28.80;;;20.52;;
76850;SDS011;65824;43.726;20.692;2023-07-09T10:49:30;7.43;;;5.22;;
76850;SDS011;65824;43.726;20.692;2023-07-09T10:52:13;11.30;;;7.63;;
76850;SDS011;65824;43.726;20.692;2023-07-09T10:57:51;5.00;;;3.85;;
76850;SDS011;65824;43.726;20.692;2023-07-09T11:00:52;15.80;;;11.50;;
76850;SDS011;65824;43.726;20.692;2023-07-09T11:03:52;43.83;;;32.83;;
76850;SDS011;65824;43.726;20.692;2023-07-09T11:06:13;14.00;;;9.43;;
76850;SDS011;65824;43.726;20.692;2023-07-09T11:08:43;12.40;;;6.90;;
76850;SDS011;65824;43.726;20.692;2023-07-09T11:11:10;9.45;;;4.38;;
76850;SDS011;65824;43.726;20.692;2023-07-09T11:13:49;17.02;;;11.80;;
76850;SDS011;65824;43.726;20.692;2023-07-09T11:16:24;27.70;;;20.13;;
76850;SDS011;65824;43.726;20.692;2023-07-09T11:18:58;43.15;;;29.60;;
76850;SDS011;65824;43.726;20.692;2023-07-09T11:21:25;34.10;;;23.30;;
76850;SDS011;65824;43.726;20.692;2023-07-09T11:23:51;24.48;;;17.55;;
76850;SDS011;65824;43.726;20.692;2023-07-09T11:28:54;18.00;;;12.63;;
76850;SDS011;65824;43.726;20.692;2023-07-09T11:31:33;20.52;;;12.77;;
76850;SDS011;65824;43.726;20.692;2023-07-09T11:34:07;8.63;;;5.03;;
76850;SDS011;65824;43.726;20.692;2023-07-09T11:39:21;10.60;;;6.65;;
76850;SDS011;65824;43.726;20.692;2023-07-09T11:42:02;60.33;;;42.05;;
76850;SDS011;65824;43.726;20.692;2023-07-09T11:44:32;9.38;;;6.70;;
76850;SDS011;65824;43.726;20.692;2023-07-09T11:49:59;22.80;;;15.25;;
76850;SDS011;65824;43.726;20.692;2023-07-09T11:52:43;8.43;;;6.05;;
76850;SDS011;65824;43.726;20.692;2023-07-09T11:57:54;16.70;;;6.32;;
76850;SDS011;65824;43.726;20.692;2023-07-09T12:00:25;9.32;;;6.72;;
76850;SDS011;65824;43.726;20.692;2023-07-09T12:02:53;16.98;;;13.63;;
76850;SDS011;65824;43.726;20.692;2023-07-09T12:05:20;8.35;;;5.82;;
76850;SDS011;65824;43.726;20.692;2023-07-09T12:07:50;11.00;;;5.47;;
76850;SDS011;65824;43.726;20.692;2023-07-09T12:10:20;7.15;;;3.25;;
76850;SDS011;65824;43.726;20.692;2023-07-09T12:12:58;4.32;;;2.60;;
76850;SDS011;65824;43.726;20.692;2023-07-09T12:15:25;5.57;;;2.88;;
76850;SDS011;65824;43.726;20.692;2023-07-09T12:17:58;5.93;;;2.92;;
76850;SDS011;65824;43.726;20.692;2023-07-09T12:20:25;4.93;;;2.95;;
76850;SDS011;65824;43.726;20.692;2023-07-09T12:22:55;4.60;;;2.78;;
76850;SDS011;65824;43.726;20.692;2023-07-09T12:25:26;6.32;;;2.95;;
76850;SDS011;65824;43.726;20.692;2023-07-09T12:27:53;5.13;;;2.78;;
76850;SDS011;65824;43.726;20.692;2023-07-09T12:30:20;4.55;;;2.72;;
76850;SDS011;65824;43.726;20.692;2023-07-09T12:32:46;6.90;;;4.15;;
76850;SDS011;65824;43.726;20.692;2023-07-09T12:35:16;6.75;;;3.65;;
76850;SDS011;65824;43.726;20.692;2023-07-09T12:37:42;7.90;;;4.45;;
76850;SDS011;65824;43.726;20.692;2023-07-09T12:40:30;9.88;;;4.65;;
76850;SDS011;65824;43.726;20.692;2023-07-09T12:42:57;5.78;;;3.15;;
76850;SDS011;65824;43.726;20.692;2023-07-09T12:45:24;5.43;;;3.20;;
76850;SDS011;65824;43.726;20.692;2023-07-09T12:47:53;5.60;;;3.30;;
76850;SDS011;65824;43.726;20.692;2023-07-09T12:50:26;5.85;;;3.35;;
76850;SDS011;65824;43.726;20.692;2023-07-09T12:52:59;5.70;;;3.03;;
76850;SDS011;65824;43.726;20.692;2023-07-09T12:55:26;7.78;;;3.10;;
76850;SDS011;65824;43.726;20.692;2023-07-09T12:57:56;6.00;;;3.08;;
76850;SDS011;65824;43.726;20.692;2023-07-09T13:00:29;4.88;;;3.17;;
76850;SDS011;65824;43.726;20.692;2023-07-09T13:02:57;9.80;;;3.15;;
76850;SDS011;65824;43.726;20.692;2023-07-09T13:05:26;6.97;;;3.50;;
76850;SDS011;65824;43.726;20.692;2023-07-09T13:07:54;5.47;;;3.20;;
76850;SDS011;65824;43.726;20.692;2023-07-09T13:10:25;12.20;;;4.47;;
76850;SDS011;65824;43.726;20.692;2023-07-09T13:12:54;7.70;;;3.78;;
76850;SDS011;65824;43.726;20.692;2023-07-09T13:18:00;7.47;;;4.60;;
76850;SDS011;65824;43.726;20.692;2023-07-09T13:20:28;12.07;;;7.63;;
76850;SDS011;65824;43.726;20.692;2023-07-09T13:22:54;18.98;;;4.85;;
76850;SDS011;65824;43.726;20.692;2023-07-09T13:25:20;6.45;;;3.42;;
76850;SDS011;65824;43.726;20.692;2023-07-09T13:27:45;7.63;;;3.38;;
76850;SDS011;65824;43.726;20.692;2023-07-09T13:30:11;5.20;;;3.20;;
76850;SDS011;65824;43.726;20.692;2023-07-09T13:32:37;6.20;;;3.03;;
76850;SDS011;65824;43.726;20.692;2023-07-09T13:35:14;5.07;;;2.90;;
76850;SDS011;65824;43.726;20.692;2023-07-09T13:37:43;4.60;;;3.00;;
76850;SDS011;65824;43.726;20.692;2023-07-09T13:40:11;9.00;;;3.45;;
76850;SDS011;65824;43.726;20.692;2023-07-09T13:42:42;4.22;;;2.88;;
76850;SDS011;65824;43.726;20.692;2023-07-09T13:45:16;11.07;;;3.30;;
76850;SDS011;65824;43.726;20.692;2023-07-09T13:47:43;8.05;;;3.70;;
76850;SDS011;65824;43.726;20.692;2023-07-09T13:50:09;6.07;;;3.10;;
76850;SDS011;65824;43.726;20.692;2023-07-09T13:52:35;4.63;;;3.00;;
76850;SDS011;65824;43.726;20.692;2023-07-09T13:55:01;5.18;;;3.25;;
76850;SDS011;65824;43.726;20.692;2023-07-09T13:57:28;5.18;;;2.97;;
76850;SDS011;65824;43.726;20.692;2023-07-09T13:59:55;4.85;;;3.35;;
76850;SDS011;65824;43.726;20.692;2023-07-09T14:02:27;5.32;;;3.25;;
76850;SDS011;65824;43.726;20.692;2023-07-09T14:05:01;5.53;;;3.42;;
76850;SDS011;65824;43.726;20.692;2023-07-09T14:10:01;5.88;;;3.50;;
76850;SDS011;65824;43.726;20.692;2023-07-09T14:12:28;7.50;;;3.33;;
76850;SDS011;65824;43.726;20.692;2023-07-09T14:14:58;4.97;;;3.30;;
76850;SDS011;65824;43.726;20.692;2023-07-09T14:17:25;5.82;;;3.08;;
76850;SDS011;65824;43.726;20.692;2023-07-09T14:19:51;6.35;;;3.15;;
76850;SDS011;65824;43.726;20.692;2023-07-09T14:22:36;5.95;;;3.70;;
76850;SDS011;65824;43.726;20.692;2023-07-09T14:25:03;5.55;;;3.25;;
76850;SDS011;65824;43.726;20.692;2023-07-09T14:27:29;6.47;;;3.60;;
76850;SDS011;65824;43.726;20.692;2023-07-09T14:29:56;6.38;;;3.55;;
76850;SDS011;65824;43.726;20.692;2023-07-09T14:34:56;7.15;;;3.42;;
76850;SDS011;65824;43.726;20.692;2023-07-09T14:37:21;5.65;;;3.50;;
76850;SDS011;65824;43.726;20.692;2023-07-09T14:39:46;6.18;;;3.20;;
76850;SDS011;65824;43.726;20.692;2023-07-09T14:42:12;5.32;;;3.30;;
76850;SDS011;65824;43.726;20.692;2023-07-09T14:44:39;5.68;;;3.13;;
76850;SDS011;65824;43.726;20.692;2023-07-09T14:47:13;5.32;;;3.40;;
76850;SDS011;65824;43.726;20.692;2023-07-09T14:49:40;4.88;;;3.10;;
76850;SDS011;65824;43.726;20.692;2023-07-09T14:52:14;4.82;;;3.00;;
76850;SDS011;65824;43.726;20.692;2023-07-09T14:54:43;7.38;;;3.63;;
76850;SDS011;65824;43.726;20.692;2023-07-09T14:57:20;4.82;;;3.30;;
76850;SDS011;65824;43.726;20.692;2023-07-09T14:59:47;4.75;;;3.17;;
76850;SDS011;65824;43.726;20.692;2023-07-09T15:05:00;6.78;;;3.38;;
76850;SDS011;65824;43.726;20.692;2023-07-09T15:07:29;4.80;;;3.08;;
76850;SDS011;65824;43.726;20.692;2023-07-09T15:09:56;5.88;;;3.03;;
76850;SDS011;65824;43.726;20.692;2023-07-09T15:12:25;6.53;;;3.35;;
76850;SDS011;65824;43.726;20.692;2023-07-09T15:14:54;6.93;;;3.65;;
76850;SDS011;65824;43.726;20.692;2023-07-09T15:17:29;4.60;;;3.33;;
76850;SDS011;65824;43.726;20.692;2023-07-09T15:19:54;6.75;;;3.22;;
76850;SDS011;65824;43.726;20.692;2023-07-09T15:22:26;6.05;;;3.55;;
76850;SDS011;65824;43.726;20.692;2023-07-09T15:24:55;6.20;;;3.90;;
76850;SDS011;65824;43.726;20.692;2023-07-09T15:27:26;6.70;;;3.78;;
76850;SDS011;65824;43.726;20.692;2023-07-09T15:29:52;6.53;;;3.65;;
76850;SDS011;65824;43.726;20.692;2023-07-09T15:32:18;6.20;;;3.33;;
76850;SDS011;65824;43.726;20.692;2023-07-09T15:34:44;6.82;;;3.40;;
76850;SDS011;65824;43.726;20.692;2023-07-09T15:37:12;7.63;;;3.42;;
76850;SDS011;65824;43.726;20.692;2023-07-09T15:39:39;5.30;;;3.50;;
76850;SDS011;65824;43.726;20.692;2023-07-09T15:42:10;4.93;;;3.53;;